Evansville, Indiana
Current Conditions -  °F | °C
As of 10:54 AM on Saturday 25 Oct 2014 (Local Time) from KEVV Reporting Station
Clear Clear  
Wind Chill: 68°   Ceiling: Unl
Heat Index: 68°   Visibility: 10mi
Dew Point: 58°   Wind: 7mph
Humidity: 70%   Direction: 270°W
Pressure: 30.03"   Gusts: NA
Location:  37.98°N, 87.56°W
Report Text: KEVV 251554Z 27006KT 10SM CLR 20/14 A3003 RMK AO2 SLP169 T02000144
Loading
Personal Weather Stations






























Interactive Weather Map
Tropical Storm Tracking
New forecast layout! Learn more

10-Day Weather Forecast

Advertisements
Track Severe Weather on mobile